sensor_id;sensor_type;location;lat;lon;timestamp;pressure;altitude;pressure_sealevel;temperature;humidity
31285;BME280;56605;51.516;6.742;2023-05-23T00:00:56;101527.44;;;15.08;100.00
31285;BME280;56605;51.516;6.742;2023-05-23T00:03:23;101525.88;;;14.91;100.00
31285;BME280;56605;51.516;6.742;2023-05-23T00:05:48;101515.47;;;14.88;100.00
31285;BME280;56605;51.516;6.742;2023-05-23T00:08:14;101530.91;;;14.94;100.00
31285;BME280;56605;51.516;6.742;2023-05-23T00:10:40;101535.25;;;14.95;100.00
31285;BME280;56605;51.516;6.742;2023-05-23T00:13:05;101537.44;;;14.91;100.00
31285;BME280;56605;51.516;6.742;2023-05-23T00:15:36;101530.22;;;14.92;100.00
31285;BME280;56605;51.516;6.742;2023-05-23T00:18:01;101524.97;;;14.99;100.00
31285;BME280;56605;51.516;6.742;2023-05-23T00:20:27;101528.63;;;15.06;100.00
31285;BME280;56605;51.516;6.742;2023-05-23T00:22:53;101533.00;;;15.07;100.00
31285;BME280;56605;51.516;6.742;2023-05-23T00:25:22;101527.19;;;14.95;100.00
31285;BME280;56605;51.516;6.742;2023-05-23T00:27:48;101536.63;;;14.91;100.00
31285;BME280;56605;51.516;6.742;2023-05-23T00:30:13;101531.09;;;14.92;100.00
31285;BME280;56605;51.516;6.742;2023-05-23T00:32:38;101527.78;;;14.82;100.00
31285;BME280;56605;51.516;6.742;2023-05-23T00:35:04;101527.09;;;14.80;100.00
31285;BME280;56605;51.516;6.742;2023-05-23T00:37:30;101529.78;;;14.80;100.00
31285;BME280;56605;51.516;6.742;2023-05-23T00:39:56;101535.16;;;14.80;100.00
31285;BME280;56605;51.516;6.742;2023-05-23T00:42:21;101535.00;;;14.81;100.00
31285;BME280;56605;51.516;6.742;2023-05-23T00:44:46;101546.72;;;14.89;100.00
31285;BME280;56605;51.516;6.742;2023-05-23T00:47:12;101537.50;;;14.83;100.00
31285;BME280;56605;51.516;6.742;2023-05-23T00:49:38;101536.97;;;14.88;100.00
31285;BME280;56605;51.516;6.742;2023-05-23T00:52:03;101541.72;;;14.77;100.00
31285;BME280;56605;51.516;6.742;2023-05-23T00:54:30;101535.66;;;14.75;100.00
31285;BME280;56605;51.516;6.742;2023-05-23T00:56:55;101544.75;;;14.74;100.00
31285;BME280;56605;51.516;6.742;2023-05-23T00:59:23;101539.53;;;14.73;100.00
31285;BME280;56605;51.516;6.742;2023-05-23T01:01:49;101540.22;;;14.75;100.00
31285;BME280;56605;51.516;6.742;2023-05-23T01:04:17;101544.91;;;14.73;100.00
31285;BME280;56605;51.516;6.742;2023-05-23T01:06:44;101530.97;;;14.77;100.00
31285;BME280;56605;51.516;6.742;2023-05-23T01:09:12;101537.00;;;14.79;100.00
31285;BME280;56605;51.516;6.742;2023-05-23T01:11:46;101535.28;;;14.87;100.00
31285;BME280;56605;51.516;6.742;2023-05-23T01:14:21;101540.53;;;14.80;100.00
31285;BME280;56605;51.516;6.742;2023-05-23T01:16:53;101529.97;;;14.78;100.00
31285;BME280;56605;51.516;6.742;2023-05-23T01:21:54;101531.25;;;14.91;100.00
31285;BME280;56605;51.516;6.742;2023-05-23T01:24:31;101533.88;;;14.99;100.00
31285;BME280;56605;51.516;6.742;2023-05-23T01:27:36;101537.78;;;14.96;100.00
31285;BME280;56605;51.516;6.742;2023-05-23T01:29:56;101535.97;;;14.89;100.00
31285;BME280;56605;51.516;6.742;2023-05-23T01:32:24;101538.03;;;14.78;100.00
31285;BME280;56605;51.516;6.742;2023-05-23T01:34:54;101544.88;;;14.89;100.00
31285;BME280;56605;51.516;6.742;2023-05-23T01:37:20;101534.28;;;14.88;100.00
31285;BME280;56605;51.516;6.742;2023-05-23T01:39:45;101536.84;;;14.81;100.00
31285;BME280;56605;51.516;6.742;2023-05-23T01:42:11;101540.53;;;14.80;100.00
31285;BME280;56605;51.516;6.742;2023-05-23T01:44:37;101542.22;;;14.81;100.00
31285;BME280;56605;51.516;6.742;2023-05-23T01:47:04;101539.59;;;14.64;100.00
31285;BME280;56605;51.516;6.742;2023-05-23T01:49:32;101544.25;;;14.70;100.00
31285;BME280;56605;51.516;6.742;2023-05-23T01:52:00;101550.63;;;14.69;100.00
31285;BME280;56605;51.516;6.742;2023-05-23T01:54:25;101545.78;;;14.73;100.00
31285;BME280;56605;51.516;6.742;2023-05-23T01:56:54;101555.50;;;14.74;100.00
31285;BME280;56605;51.516;6.742;2023-05-23T01:59:20;101549.44;;;14.72;100.00
31285;BME280;56605;51.516;6.742;2023-05-23T02:01:45;101557.00;;;14.77;100.00
31285;BME280;56605;51.516;6.742;2023-05-23T02:04:12;101562.06;;;14.71;100.00
31285;BME280;56605;51.516;6.742;2023-05-23T02:06:37;101558.22;;;14.66;100.00
31285;BME280;56605;51.516;6.742;2023-05-23T02:09:03;101555.00;;;14.70;100.00
31285;BME280;56605;51.516;6.742;2023-05-23T02:11:28;101557.53;;;14.80;100.00
31285;BME280;56605;51.516;6.742;2023-05-23T02:13:53;101556.84;;;14.78;100.00
31285;BME280;56605;51.516;6.742;2023-05-23T02:16:18;101556.53;;;14.65;100.00
31285;BME280;56605;51.516;6.742;2023-05-23T02:18:44;101558.72;;;14.69;100.00
31285;BME280;56605;51.516;6.742;2023-05-23T02:21:10;101560.03;;;14.74;100.00
31285;BME280;56605;51.516;6.742;2023-05-23T02:23:35;101559.06;;;14.66;100.00
31285;BME280;56605;51.516;6.742;2023-05-23T02:26:00;101565.75;;;14.79;100.00
31285;BME280;56605;51.516;6.742;2023-05-23T02:28:26;101567.63;;;14.70;100.00
31285;BME280;56605;51.516;6.742;2023-05-23T02:30:51;101556.78;;;14.47;100.00
31285;BME280;56605;51.516;6.742;2023-05-23T02:33:16;101560.47;;;14.54;100.00
31285;BME280;56605;51.516;6.742;2023-05-23T02:35:41;101557.94;;;14.52;100.00
31285;BME280;56605;51.516;6.742;2023-05-23T02:38:07;101568.03;;;14.50;100.00
31285;BME280;56605;51.516;6.742;2023-05-23T02:40:32;101575.53;;;14.63;100.00
31285;BME280;56605;51.516;6.742;2023-05-23T02:42:57;101560.47;;;14.54;100.00
31285;BME280;56605;51.516;6.742;2023-05-23T02:45:23;101576.75;;;14.52;100.00
31285;BME280;56605;51.516;6.742;2023-05-23T02:47:48;101571.91;;;14.48;100.00
31285;BME280;56605;51.516;6.742;2023-05-23T02:50:14;101573.25;;;14.43;100.00
31285;BME280;56605;51.516;6.742;2023-05-23T02:52:40;101580.63;;;14.41;100.00
31285;BME280;56605;51.516;6.742;2023-05-23T02:55:06;101578.28;;;14.38;100.00
31285;BME280;56605;51.516;6.742;2023-05-23T02:57:32;101580.34;;;14.36;100.00
31285;BME280;56605;51.516;6.742;2023-05-23T02:59:57;101569.38;;;14.38;100.00
31285;BME280;56605;51.516;6.742;2023-05-23T03:02:22;101571.59;;;14.34;100.00
31285;BME280;56605;51.516;6.742;2023-05-23T03:04:48;101579.78;;;14.41;100.00
31285;BME280;56605;51.516;6.742;2023-05-23T03:07:13;101577.66;;;14.36;100.00
31285;BME280;56605;51.516;6.742;2023-05-23T03:09:39;101578.13;;;14.40;100.00
31285;BME280;56605;51.516;6.742;2023-05-23T03:12:05;101579.69;;;14.26;100.00
31285;BME280;56605;51.516;6.742;2023-05-23T03:14:30;101579.00;;;14.24;100.00
31285;BME280;56605;51.516;6.742;2023-05-23T03:16:56;101594.97;;;14.17;100.00
31285;BME280;56605;51.516;6.742;2023-05-23T03:19:21;101590.78;;;14.14;100.00
31285;BME280;56605;51.516;6.742;2023-05-23T03:21:46;101590.59;;;14.24;100.00
31285;BME280;56605;51.516;6.742;2023-05-23T03:24:14;101601.34;;;14.16;100.00
31285;BME280;56605;51.516;6.742;2023-05-23T03:26:39;101606.03;;;14.22;100.00
31285;BME280;56605;51.516;6.742;2023-05-23T03:29:05;101591.59;;;14.23;100.00
31285;BME280;56605;51.516;6.742;2023-05-23T03:31:30;101610.06;;;14.26;100.00
31285;BME280;56605;51.516;6.742;2023-05-23T03:33:55;101612.59;;;14.11;100.00
31285;BME280;56605;51.516;6.742;2023-05-23T03:36:21;101607.75;;;14.06;100.00
31285;BME280;56605;51.516;6.742;2023-05-23T03:38:50;101605.72;;;14.08;100.00
31285;BME280;56605;51.516;6.742;2023-05-23T03:41:15;101609.41;;;14.07;100.00
31285;BME280;56605;51.516;6.742;2023-05-23T03:43:40;101617.31;;;14.09;100.00
31285;BME280;56605;51.516;6.742;2023-05-23T03:46:06;101619.00;;;14.02;100.00
31285;BME280;56605;51.516;6.742;2023-05-23T03:48:31;101617.47;;;14.07;100.00
31285;BME280;56605;51.516;6.742;2023-05-23T03:50:56;101613.94;;;14.07;100.00
31285;BME280;56605;51.516;6.742;2023-05-23T03:53:22;101615.44;;;14.10;100.00
31285;BME280;56605;51.516;6.742;2023-05-23T03:55:47;101624.69;;;14.15;100.00
31285;BME280;56605;51.516;6.742;2023-05-23T03:58:12;101624.16;;;14.12;100.00
31285;BME280;56605;51.516;6.742;2023-05-23T04:00:37;101621.84;;;14.17;100.00
31285;BME280;56605;51.516;6.742;2023-05-23T04:03:03;101625.34;;;14.09;100.00
31285;BME280;56605;51.516;6.742;2023-05-23T04:05:28;101630.22;;;14.14;100.00
31285;BME280;56605;51.516;6.742;2023-05-23T04:07:54;101635.59;;;14.14;100.00
31285;BME280;56605;51.516;6.742;2023-05-23T04:10:19;101640.25;;;14.20;100.00
31285;BME280;56605;51.516;6.742;2023-05-23T04:12:44;101639.28;;;14.21;100.00
31285;BME280;56605;51.516;6.742;2023-05-23T04:15:12;101645.16;;;14.08;100.00
31285;BME280;56605;51.516;6.742;2023-05-23T04:17:37;101645.50;;;14.05;100.00
31285;BME280;56605;51.516;6.742;2023-05-23T04:20:06;101643.81;;;14.12;100.00
31285;BME280;56605;51.516;6.742;2023-05-23T04:22:34;101647.84;;;14.00;100.00
31285;BME280;56605;51.516;6.742;2023-05-23T04:25:00;101646.16;;;13.99;100.00
31285;BME280;56605;51.516;6.742;2023-05-23T04:27:25;101649.53;;;13.84;100.00
31285;BME280;56605;51.516;6.742;2023-05-23T04:29:50;101654.03;;;13.92;100.00
31285;BME280;56605;51.516;6.742;2023-05-23T04:32:16;101652.38;;;13.91;100.00
31285;BME280;56605;51.516;6.742;2023-05-23T04:34:43;101658.22;;;13.86;100.00
31285;BME280;56605;51.516;6.742;2023-05-23T04:37:09;101668.13;;;13.77;100.00
31285;BME280;56605;51.516;6.742;2023-05-23T04:39:34;101661.59;;;13.80;100.00
31285;BME280;56605;51.516;6.742;2023-05-23T04:41:59;101663.78;;;13.76;100.00
31285;BME280;56605;51.516;6.742;2023-05-23T04:44:25;101663.78;;;13.68;100.00
31285;BME280;56605;51.516;6.742;2023-05-23T04:46:54;101662.94;;;13.84;100.00
31285;BME280;56605;51.516;6.742;2023-05-23T04:49:20;101662.94;;;13.84;100.00
31285;BME280;56605;51.516;6.742;2023-05-23T04:51:46;101661.09;;;13.85;100.00
31285;BME280;56605;51.516;6.742;2023-05-23T04:54:12;101670.47;;;13.80;100.00
31285;BME280;56605;51.516;6.742;2023-05-23T04:56:37;101673.00;;;13.82;100.00
31285;BME280;56605;51.516;6.742;2023-05-23T04:59:03;101672.50;;;13.95;100.00
31285;BME280;56605;51.516;6.742;2023-05-23T05:01:28;101672.69;;;14.02;100.00
31285;BME280;56605;51.516;6.742;2023-05-23T05:03:55;101690.97;;;13.98;100.00
31285;BME280;56605;51.516;6.742;2023-05-23T05:06:22;101674.69;;;13.91;100.00
31285;BME280;56605;51.516;6.742;2023-05-23T05:08:47;101673.00;;;13.82;100.00
31285;BME280;56605;51.516;6.742;2023-05-23T05:11:12;101686.41;;;13.82;100.00
31285;BME280;56605;51.516;6.742;2023-05-23T05:13:38;101692.97;;;13.79;100.00
31285;BME280;56605;51.516;6.742;2023-05-23T05:16:03;101688.25;;;13.81;100.00
31285;BME280;56605;51.516;6.742;2023-05-23T05:18:29;101686.59;;;13.89;100.00
31285;BME280;56605;51.516;6.742;2023-05-23T05:20:55;101698.00;;;13.91;100.00
31285;BME280;56605;51.516;6.742;2023-05-23T05:23:25;101690.13;;;13.89;100.00
31285;BME280;56605;51.516;6.742;2023-05-23T05:25:54;101694.81;;;13.95;100.00
31285;BME280;56605;51.516;6.742;2023-05-23T05:28:20;101694.31;;;14.00;100.00
31285;BME280;56605;51.516;6.742;2023-05-23T05:30:46;101693.63;;;13.98;100.00
31285;BME280;56605;51.516;6.742;2023-05-23T05:33:12;101699.69;;;14.00;100.00
31285;BME280;56605;51.516;6.742;2023-05-23T05:35:38;101709.41;;;14.01;100.00
31285;BME280;56605;51.516;6.742;2023-05-23T05:38:04;101700.88;;;13.98;100.00
31285;BME280;56605;51.516;6.742;2023-05-23T05:40:33;101706.25;;;14.06;100.00
31285;BME280;56605;51.516;6.742;2023-05-23T05:42:58;101713.44;;;13.89;100.00
31285;BME280;56605;51.516;6.742;2023-05-23T05:45:24;101713.75;;;13.77;100.00
31285;BME280;56605;51.516;6.742;2023-05-23T05:47:49;101716.59;;;13.76;100.00
31285;BME280;56605;51.516;6.742;2023-05-23T05:50:16;101722.66;;;13.78;100.00
31285;BME280;56605;51.516;6.742;2023-05-23T05:52:41;101722.66;;;13.86;100.00
31285;BME280;56605;51.516;6.742;2023-05-23T05:55:10;101722.47;;;13.88;100.00
31285;BME280;56605;51.516;6.742;2023-05-23T05:57:39;101721.50;;;13.97;100.00
31285;BME280;56605;51.516;6.742;2023-05-23T06:00:09;101720.97;;;13.85;100.00
31285;BME280;56605;51.516;6.742;2023-05-23T06:02:40;101735.41;;;13.92;100.00
31285;BME280;56605;51.516;6.742;2023-05-23T06:05:06;101736.25;;;13.93;100.00
31285;BME280;56605;51.516;6.742;2023-05-23T06:07:34;101736.06;;;13.86;100.00
31285;BME280;56605;51.516;6.742;2023-05-23T06:10:01;101734.88;;;13.80;100.00
31285;BME280;56605;51.516;6.742;2023-05-23T06:12:26;101724.38;;;14.12;100.00
31285;BME280;56605;51.516;6.742;2023-05-23T06:14:51;101724.69;;;14.17;100.00
31285;BME280;56605;51.516;6.742;2023-05-23T06:17:17;101735.63;;;14.24;100.00
31285;BME280;56605;51.516;6.742;2023-05-23T06:19:42;101731.75;;;14.10;100.00
31285;BME280;56605;51.516;6.742;2023-05-23T06:22:07;101739.97;;;14.08;100.00
31285;BME280;56605;51.516;6.742;2023-05-23T06:24:33;101743.81;;;14.06;100.00
31285;BME280;56605;51.516;6.742;2023-05-23T06:26:58;101742.97;;;14.05;100.00
31285;BME280;56605;51.516;6.742;2023-05-23T06:29:23;101742.44;;;13.93;100.00
31285;BME280;56605;51.516;6.742;2023-05-23T06:31:48;101744.66;;;14.15;100.00
31285;BME280;56605;51.516;6.742;2023-05-23T06:34:15;101745.97;;;13.86;100.00
31285;BME280;56605;51.516;6.742;2023-05-23T06:36:40;101746.00;;;14.02;100.00
31285;BME280;56605;51.516;6.742;2023-05-23T06:39:07;101747.69;;;14.03;100.00
31285;BME280;56605;51.516;6.742;2023-05-23T06:41:34;101757.56;;;13.94;100.00
31285;BME280;56605;51.516;6.742;2023-05-23T06:43:59;101752.16;;;13.78;100.00
31285;BME280;56605;51.516;6.742;2023-05-23T06:46:24;101749.84;;;13.91;100.00
31285;BME280;56605;51.516;6.742;2023-05-23T06:48:50;101752.03;;;14.13;100.00
31285;BME280;56605;51.516;6.742;2023-05-23T06:51:16;101752.56;;;14.16;100.00
31285;BME280;56605;51.516;6.742;2023-05-23T06:53:41;101759.78;;;13.99;100.00
31285;BME280;56605;51.516;6.742;2023-05-23T06:56:06;101757.75;;;14.01;100.00
31285;BME280;56605;51.516;6.742;2023-05-23T06:58:32;101768.59;;;13.83;100.00
31285;BME280;56605;51.516;6.742;2023-05-23T07:00:57;101775.34;;;14.04;100.00
31285;BME280;56605;51.516;6.742;2023-05-23T07:03:22;101784.88;;;13.81;100.00
31285;BME280;56605;51.516;6.742;2023-05-23T07:05:47;101777.50;;;13.92;100.00
31285;BME280;56605;51.516;6.742;2023-05-23T07:08:13;101771.97;;;13.85;100.00
31285;BME280;56605;51.516;6.742;2023-05-23T07:10:38;101787.75;;;13.88;100.00
31285;BME280;56605;51.516;6.742;2023-05-23T07:13:05;101792.28;;;13.88;100.00
31285;BME280;56605;51.516;6.742;2023-05-23T07:15:30;101798.44;;;13.72;100.00
31285;BME280;56605;51.516;6.742;2023-05-23T07:17:56;101798.59;;;13.70;100.00
31285;BME280;56605;51.516;6.742;2023-05-23T07:20:21;101800.38;;;13.53;100.00
31285;BME280;56605;51.516;6.742;2023-05-23T07:22:46;101803.63;;;13.73;100.00
31285;BME280;56605;51.516;6.742;2023-05-23T07:25:12;101811.00;;;13.36;100.00
31285;BME280;56605;51.516;6.742;2023-05-23T07:27:37;101802.00;;;13.46;100.00
31285;BME280;56605;51.516;6.742;2023-05-23T07:30:03;101825.78;;;13.40;100.00
31285;BME280;56605;51.516;6.742;2023-05-23T07:32:29;101820.78;;;13.46;100.00
31285;BME280;56605;51.516;6.742;2023-05-23T07:34:54;101830.22;;;13.50;100.00
31285;BME280;56605;51.516;6.742;2023-05-23T07:37:19;101823.09;;;13.40;100.00
31285;BME280;56605;51.516;6.742;2023-05-23T07:39:45;101825.28;;;13.10;100.00
31285;BME280;56605;51.516;6.742;2023-05-23T07:42:10;101833.00;;;13.13;100.00
31285;BME280;56605;51.516;6.742;2023-05-23T07:44:35;101836.50;;;13.14;100.00
31285;BME280;56605;51.516;6.742;2023-05-23T07:47:02;101844.13;;;13.00;100.00
31285;BME280;56605;51.516;6.742;2023-05-23T07:49:28;101845.88;;;13.10;100.00
31285;BME280;56605;51.516;6.742;2023-05-23T07:51:54;101858.69;;;12.98;100.00
31285;BME280;56605;51.516;6.742;2023-05-23T07:54:19;101853.66;;;12.76;100.00
31285;BME280;56605;51.516;6.742;2023-05-23T07:56:44;101853.03;;;12.83;100.00
31285;BME280;56605;51.516;6.742;2023-05-23T07:59:10;101862.41;;;12.78;100.00
31285;BME280;56605;51.516;6.742;2023-05-23T08:01:36;101866.59;;;12.81;100.00
31285;BME280;56605;51.516;6.742;2023-05-23T08:04:01;101864.84;;;12.72;100.00
31285;BME280;56605;51.516;6.742;2023-05-23T08:06:27;101869.06;;;12.74;100.00
31285;BME280;56605;51.516;6.742;2023-05-23T08:08:53;101868.16;;;12.65;100.00
31285;BME280;56605;51.516;6.742;2023-05-23T08:11:18;101870.53;;;12.68;100.00
31285;BME280;56605;51.516;6.742;2023-05-23T08:13:43;101870.91;;;12.55;100.00
31285;BME280;56605;51.516;6.742;2023-05-23T08:16:08;101874.72;;;12.53;100.00
31285;BME280;56605;51.516;6.742;2023-05-23T08:18:34;101871.50;;;12.67;100.00
31285;BME280;56605;51.516;6.742;2023-05-23T08:21:00;101878.78;;;12.57;100.00
31285;BME280;56605;51.516;6.742;2023-05-23T08:23:27;101878.09;;;12.73;100.00
31285;BME280;56605;51.516;6.742;2023-05-23T08:25:53;101875.13;;;12.58;100.00
31285;BME280;56605;51.516;6.742;2023-05-23T08:28:18;101884.88;;;12.31;100.00
31285;BME280;56605;51.516;6.742;2023-05-23T08:30:44;101886.03;;;12.28;100.00
31285;BME280;56605;51.516;6.742;2023-05-23T08:33:09;101882.81;;;12.25;100.00
31285;BME280;56605;51.516;6.742;2023-05-23T08:35:35;101889.91;;;12.16;100.00
31285;BME280;56605;51.516;6.742;2023-05-23T08:38:01;101896.00;;;12.36;100.00
31285;BME280;56605;51.516;6.742;2023-05-23T08:40:29;101908.59;;;12.26;100.00
31285;BME280;56605;51.516;6.742;2023-05-23T08:42:55;101905.28;;;12.14;100.00
31285;BME280;56605;51.516;6.742;2023-05-23T08:45:20;101905.97;;;12.16;100.00
31285;BME280;56605;51.516;6.742;2023-05-23T08:47:46;101903.78;;;12.29;100.00
31285;BME280;56605;51.516;6.742;2023-05-23T08:50:15;101908.72;;;12.52;100.00
31285;BME280;56605;51.516;6.742;2023-05-23T08:52:56;101906.22;;;12.41;100.00
31285;BME280;56605;51.516;6.742;2023-05-23T08:55:27;101913.63;;;12.29;100.00
31285;BME280;56605;51.516;6.742;2023-05-23T08:57:59;101906.31;;;12.31;100.00
31285;BME280;56605;51.516;6.742;2023-05-23T09:00:25;101910.47;;;12.62;100.00
31285;BME280;56605;51.516;6.742;2023-05-23T09:02:51;101912.00;;;12.83;100.00
31285;BME280;56605;51.516;6.742;2023-05-23T09:05:17;101915.31;;;12.58;100.00
31285;BME280;56605;51.516;6.742;2023-05-23T09:07:44;101924.09;;;12.87;100.00
31285;BME280;56605;51.516;6.742;2023-05-23T09:10:14;101922.47;;;12.58;100.00
31285;BME280;56605;51.516;6.742;2023-05-23T09:12:42;101923.88;;;12.43;100.00
31285;BME280;56605;51.516;6.742;2023-05-23T09:15:08;101926.88;;;12.30;100.00
31285;BME280;56605;51.516;6.742;2023-05-23T09:17:34;101931.19;;;12.41;100.00
31285;BME280;56605;51.516;6.742;2023-05-23T09:20:03;101935.69;;;12.41;100.00
31285;BME280;56605;51.516;6.742;2023-05-23T09:22:34;101937.91;;;12.27;100.00
31285;BME280;56605;51.516;6.742;2023-05-23T09:24:59;101932.44;;;12.19;100.00
31285;BME280;56605;51.516;6.742;2023-05-23T09:27:24;101937.28;;;12.34;100.00
31285;BME280;56605;51.516;6.742;2023-05-23T09:29:50;101937.56;;;12.02;100.00
31285;BME280;56605;51.516;6.742;2023-05-23T09:32:16;101950.09;;;12.02;100.00
31285;BME280;56605;51.516;6.742;2023-05-23T09:34:57;101945.53;;;11.84;100.00
31285;BME280;56605;51.516;6.742;2023-05-23T09:37:36;101949.38;;;12.10;100.00
31285;BME280;56605;51.516;6.742;2023-05-23T09:40:07;101949.50;;;12.18;100.00
31285;BME280;56605;51.516;6.742;2023-05-23T09:42:46;101953.19;;;12.17;100.00
31285;BME280;56605;51.516;6.742;2023-05-23T09:45:13;101941.66;;;12.35;100.00
31285;BME280;56605;51.516;6.742;2023-05-23T09:47:38;101954.81;;;12.28;100.00
31285;BME280;56605;51.516;6.742;2023-05-23T09:50:04;101948.78;;;12.26;100.00
31285;BME280;56605;51.516;6.742;2023-05-23T09:52:35;101947.41;;;12.40;100.00
31285;BME280;56605;51.516;6.742;2023-05-23T09:55:02;101947.44;;;12.76;100.00
31285;BME280;56605;51.516;6.742;2023-05-23T09:57:28;101953.19;;;13.00;100.00
31285;BME280;56605;51.516;6.742;2023-05-23T09:59:56;101945.69;;;13.03;100.00
31285;BME280;56605;51.516;6.742;2023-05-23T10:02:49;101951.59;;;12.89;100.00
31285;BME280;56605;51.516;6.742;2023-05-23T10:08:07;101932.47;;;13.81;100.00
31285;BME280;56605;51.516;6.742;2023-05-23T10:10:34;101926.47;;;14.31;100.00
31285;BME280;56605;51.516;6.742;2023-05-23T10:13:02;101930.06;;;14.56;100.00
31285;BME280;56605;51.516;6.742;2023-05-23T10:15:34;101934.69;;;13.86;100.00
31285;BME280;56605;51.516;6.742;2023-05-23T10:18:16;101928.91;;;13.99;100.00
31285;BME280;56605;51.516;6.742;2023-05-23T10:20:46;101942.13;;;13.66;100.00
31285;BME280;56605;51.516;6.742;2023-05-23T10:23:14;101946.94;;;13.54;100.00
31285;BME280;56605;51.516;6.742;2023-05-23T10:25:41;101944.66;;;14.02;100.00
31285;BME280;56605;51.516;6.742;2023-05-23T10:28:07;101940.97;;;13.68;100.00
31285;BME280;56605;51.516;6.742;2023-05-23T10:30:33;101934.38;;;14.41;100.00
31285;BME280;56605;51.516;6.742;2023-05-23T10:32:59;101936.25;;;14.49;100.00
31285;BME280;56605;51.516;6.742;2023-05-23T10:38:06;101939.63;;;13.99;100.00
31285;BME280;56605;51.516;6.742;2023-05-23T10:40:45;101943.53;;;14.13;100.00
31285;BME280;56605;51.516;6.742;2023-05-23T10:43:24;101952.16;;;14.25;100.00
31285;BME280;56605;51.516;6.742;2023-05-23T10:45:53;101944.41;;;14.14;100.00
31285;BME280;56605;51.516;6.742;2023-05-23T10:48:32;101944.63;;;14.37;100.00
31285;BME280;56605;51.516;6.742;2023-05-23T10:51:09;101969.91;;;13.56;100.00
31285;BME280;56605;51.516;6.742;2023-05-23T10:53:38;101960.06;;;13.65;100.00
31285;BME280;56605;51.516;6.742;2023-05-23T10:56:04;101966.28;;;13.48;100.00
31285;BME280;56605;51.516;6.742;2023-05-23T10:58:31;101959.34;;;14.25;100.00
31285;BME280;56605;51.516;6.742;2023-05-23T11:01:01;101957.75;;;14.49;100.00
31285;BME280;56605;51.516;6.742;2023-05-23T11:06:42;101957.84;;;14.30;100.00
31285;BME280;56605;51.516;6.742;2023-05-23T11:09:13;101956.56;;;14.35;100.00
31285;BME280;56605;51.516;6.742;2023-05-23T11:11:54;101962.06;;;13.90;100.00
31285;BME280;56605;51.516;6.742;2023-05-23T11:16:56;101966.97;;;13.94;100.00
31285;BME280;56605;51.516;6.742;2023-05-23T11:19:23;101977.75;;;13.76;100.00
31285;BME280;56605;51.516;6.742;2023-05-23T11:24:21;101971.22;;;13.79;100.00
31285;BME280;56605;51.516;6.742;2023-05-23T11:27:13;101974.59;;;13.81;100.00
31285;BME280;56605;51.516;6.742;2023-05-23T11:29:38;101975.03;;;13.94;100.00
31285;BME280;56605;51.516;6.742;2023-05-23T11:32:12;101972.09;;;14.74;100.00
31285;BME280;56605;51.516;6.742;2023-05-23T11:34:38;101979.47;;;14.72;100.00
31285;BME280;56605;51.516;6.742;2023-05-23T11:37:04;101978.16;;;14.25;100.00
31285;BME280;56605;51.516;6.742;2023-05-23T11:39:29;101979.00;;;14.85;100.00
31285;BME280;56605;51.516;6.742;2023-05-23T11:41:59;101985.84;;;15.88;100.00
31285;BME280;56605;51.516;6.742;2023-05-23T11:44:25;101977.19;;;15.27;99.01
31285;BME280;56605;51.516;6.742;2023-05-23T11:47:02;101981.94;;;17.79;90.02
31285;BME280;56605;51.516;6.742;2023-05-23T11:49:29;101970.94;;;16.25;89.33
31285;BME280;56605;51.516;6.742;2023-05-23T11:51:56;101974.66;;;16.24;91.49
31285;BME280;56605;51.516;6.742;2023-05-23T11:54:23;101975.00;;;15.56;92.02
31285;BME280;56605;51.516;6.742;2023-05-23T11:56:49;101970.59;;;15.80;95.58
31285;BME280;56605;51.516;6.742;2023-05-23T11:59:14;101969.88;;;15.94;94.91
31285;BME280;56605;51.516;6.742;2023-05-23T12:01:40;101967.50;;;16.08;97.76
31285;BME280;56605;51.516;6.742;2023-05-23T12:04:09;101974.56;;;16.72;92.86
31285;BME280;56605;51.516;6.742;2023-05-23T12:06:38;101983.88;;;15.73;94.81
31285;BME280;56605;51.516;6.742;2023-05-23T12:09:04;101989.63;;;14.95;95.17
31285;BME280;56605;51.516;6.742;2023-05-23T12:11:30;101979.84;;;15.69;91.99
31285;BME280;56605;51.516;6.742;2023-05-23T12:13:56;101972.31;;;16.21;87.32
31285;BME280;56605;51.516;6.742;2023-05-23T12:16:22;101975.53;;;16.80;84.59
31285;BME280;56605;51.516;6.742;2023-05-23T12:18:47;101977.94;;;16.03;87.66
31285;BME280;56605;51.516;6.742;2023-05-23T12:21:12;101974.00;;;15.32;90.21
31285;BME280;56605;51.516;6.742;2023-05-23T12:23:38;101980.41;;;17.08;83.47
31285;BME280;56605;51.516;6.742;2023-05-23T12:26:04;101979.31;;;15.82;83.81
31285;BME280;56605;51.516;6.742;2023-05-23T12:31:14;101983.25;;;16.51;81.78
31285;BME280;56605;51.516;6.742;2023-05-23T12:33:41;101979.72;;;16.19;83.95
31285;BME280;56605;51.516;6.742;2023-05-23T12:36:28;101979.13;;;16.40;82.33
31285;BME280;56605;51.516;6.742;2023-05-23T12:39:01;101972.69;;;16.09;82.76
31285;BME280;56605;51.516;6.742;2023-05-23T12:41:27;101985.38;;;15.76;83.28
31285;BME280;56605;51.516;6.742;2023-05-23T12:43:54;101969.69;;;15.88;84.00
31285;BME280;56605;51.516;6.742;2023-05-23T12:46:21;101973.38;;;15.95;83.60
31285;BME280;56605;51.516;6.742;2023-05-23T12:48:47;101978.53;;;15.48;84.97
31285;BME280;56605;51.516;6.742;2023-05-23T12:51:13;101969.56;;;15.72;85.40
31285;BME280;56605;51.516;6.742;2023-05-23T12:53:38;101971.16;;;16.47;84.42
31285;BME280;56605;51.516;6.742;2023-05-23T12:56:04;101978.75;;;16.12;85.32
31285;BME280;56605;51.516;6.742;2023-05-23T12:58:29;101977.50;;;15.66;86.69